createdAt,value
2023-01-19T00:00:31.533Z,90.43
2023-01-19T00:02:58.229Z,90.20
2023-01-19T00:05:24.767Z,90.05
2023-01-19T00:07:51.215Z,90.56
2023-01-19T00:10:17.941Z,90.26
2023-01-19T00:12:44.359Z,90.14
2023-01-19T00:15:11.822Z,90.09
2023-01-19T00:17:40.974Z,90.14
2023-01-19T00:20:09.392Z,90.09
2023-01-19T00:22:35.921Z,90.17
2023-01-19T00:25:02.825Z,90.77
2023-01-19T00:27:30.446Z,90.45
2023-01-19T00:29:57.184Z,90.85
2023-01-19T00:32:23.716Z,91.22
2023-01-19T00:34:52.292Z,91.19
2023-01-19T00:37:18.767Z,91.81
2023-01-19T00:39:45.265Z,91.83
2023-01-19T00:42:31.653Z,92.61
2023-01-19T00:44:58.321Z,92.27
2023-01-19T00:47:25.087Z,91.55
2023-01-19T00:49:51.653Z,91.59
2023-01-19T00:52:18.199Z,91.21
2023-01-19T00:54:44.614Z,90.95
2023-01-19T00:57:11.207Z,90.80
2023-01-19T00:59:37.697Z,90.53
2023-01-19T01:02:04.346Z,90.84
2023-01-19T01:04:31.095Z,91.60
2023-01-19T01:06:57.540Z,92.08
2023-01-19T01:09:24.245Z,92.27
2023-01-19T01:11:50.707Z,92.47
2023-01-19T01:14:18.192Z,92.45
2023-01-19T01:16:44.915Z,92.71
2023-01-19T01:19:11.509Z,92.55
2023-01-19T01:21:38.016Z,93.01
2023-01-19T01:24:05.051Z,93.24
2023-01-19T01:26:31.868Z,93.20
2023-01-19T01:28:58.337Z,93.19
2023-01-19T01:31:25.177Z,93.59
2023-01-19T01:33:51.733Z,93.58
2023-01-19T01:36:19.069Z,93.29
2023-01-19T01:38:45.549Z,93.00
2023-01-19T01:41:12.014Z,92.94
2023-01-19T01:43:58.593Z,92.68
2023-01-19T01:46:26.683Z,92.73
2023-01-19T01:49:13.825Z,92.43
2023-01-19T01:51:52.309Z,92.41
2023-01-19T01:54:32.277Z,92.77
2023-01-19T01:57:04.148Z,91.78
2023-01-19T01:59:39.166Z,92.41
2023-01-19T02:02:30.070Z,91.91
2023-01-19T02:09:14.295Z,93.18
2023-01-19T02:12:00.490Z,93.23
2023-01-19T02:14:27.111Z,93.59
2023-01-19T02:16:53.793Z,93.44
2023-01-19T02:19:27.093Z,93.25
2023-01-19T02:22:03.572Z,92.59
2023-01-19T02:24:30.550Z,92.23
2023-01-19T02:26:57.888Z,92.27
2023-01-19T02:29:26.538Z,92.09
2023-01-19T02:31:54.078Z,92.57
2023-01-19T02:34:22.742Z,92.08
2023-01-19T02:36:54.370Z,92.35
2023-01-19T02:39:28.923Z,92.83
2023-01-19T02:42:02.708Z,92.14
2023-01-19T02:44:30.471Z,92.21
2023-01-19T02:46:57.256Z,92.28
2023-01-19T02:49:27.847Z,92.04
2023-01-19T02:51:54.469Z,92.65
2023-01-19T02:54:48.378Z,93.92
2023-01-19T02:57:20.544Z,94.59
2023-01-19T03:00:05.194Z,94.16
2023-01-19T03:02:47.039Z,93.91
2023-01-19T03:05:20.071Z,94.42
2023-01-19T03:08:08.190Z,94.82
2023-01-19T03:11:03.819Z,93.65
2023-01-19T03:13:42.377Z,93.42
2023-01-19T03:16:32.331Z,92.85
2023-01-19T03:19:06.487Z,92.79
2023-01-19T03:21:36.792Z,92.54
2023-01-19T03:24:06.397Z,92.83
2023-01-19T03:26:38.980Z,93.14
2023-01-19T03:29:08.459Z,92.47
2023-01-19T03:31:36.896Z,92.81
2023-01-19T03:34:08.093Z,93.03
2023-01-19T03:36:42.755Z,93.14
2023-01-19T03:39:12.345Z,93.22
2023-01-19T03:41:41.141Z,93.62
2023-01-19T03:44:08.705Z,93.66
2023-01-19T03:46:35.302Z,93.54
2023-01-19T03:49:01.897Z,93.88
2023-01-19T03:51:28.351Z,94.59
2023-01-19T03:53:54.792Z,94.35
2023-01-19T03:56:25.419Z,94.70
2023-01-19T03:58:52.490Z,95.24
2023-01-19T04:01:23.040Z,95.05
2023-01-19T04:03:50.548Z,95.76
2023-01-19T04:06:17.530Z,95.88
2023-01-19T04:08:44.058Z,96.34
2023-01-19T04:11:10.568Z,96.02
2023-01-19T04:13:38.433Z,95.80
2023-01-19T04:16:05.561Z,96.19
2023-01-19T04:18:34.706Z,95.58
2023-01-19T04:21:04.067Z,95.98
2023-01-19T04:23:31.333Z,95.71
2023-01-19T04:26:04.225Z,95.96
2023-01-19T04:28:31.672Z,96.20
2023-01-19T04:30:58.256Z,96.22
2023-01-19T04:33:25.441Z,96.11
2023-01-19T04:35:54.429Z,96.59
2023-01-19T04:38:21.197Z,96.73
2023-01-19T04:40:49.181Z,97.45
2023-01-19T04:43:16.260Z,97.63
2023-01-19T04:45:44.780Z,97.61
2023-01-19T04:48:11.869Z,97.67
2023-01-19T04:50:38.779Z,97.75
2023-01-19T04:53:05.293Z,98.16
2023-01-19T04:55:31.741Z,97.80
2023-01-19T04:57:58.160Z,97.64
2023-01-19T05:00:24.714Z,97.58
2023-01-19T05:02:51.295Z,97.71
2023-01-19T05:05:18.377Z,98.22
2023-01-19T05:07:45.292Z,98.02
2023-01-19T05:10:12.043Z,98.42
2023-01-19T05:12:39.001Z,98.55
2023-01-19T05:15:07.799Z,97.66
2023-01-19T05:17:34.477Z,97.40
2023-01-19T05:20:00.987Z,97.03
2023-01-19T05:22:27.472Z,96.43
2023-01-19T05:24:54.292Z,96.74
2023-01-19T05:27:21.032Z,96.70
2023-01-19T05:29:47.495Z,96.64
2023-01-19T05:32:15.845Z,96.27
2023-01-19T05:34:42.290Z,96.99
2023-01-19T05:37:08.745Z,97.06
2023-01-19T05:39:35.159Z,97.40
2023-01-19T05:42:01.608Z,97.28
2023-01-19T05:44:28.094Z,97.01
2023-01-19T05:46:54.575Z,96.90
2023-01-19T05:49:21.021Z,97.19
2023-01-19T05:51:47.551Z,97.73
2023-01-19T05:54:17.599Z,97.01
2023-01-19T05:56:44.410Z,95.99
2023-01-19T05:59:11.641Z,95.43
2023-01-19T06:01:39.923Z,95.16
2023-01-19T06:04:06.805Z,95.42
2023-01-19T06:06:33.321Z,95.27
2023-01-19T06:08:59.935Z,95.74
2023-01-19T06:11:26.538Z,94.47
2023-01-19T06:13:53.016Z,94.89
2023-01-19T06:16:19.583Z,94.53
2023-01-19T06:18:46.159Z,95.02
2023-01-19T06:21:14.346Z,95.26
2023-01-19T06:23:41.135Z,95.18
2023-01-19T06:26:08.136Z,95.12
2023-01-19T06:28:34.699Z,95.15
2023-01-19T06:31:01.613Z,95.73
2023-01-19T06:33:28.744Z,95.72
2023-01-19T06:35:56.187Z,95.06
2023-01-19T06:38:23.086Z,94.83
2023-01-19T06:41:02.534Z,94.76
2023-01-19T06:43:29.696Z,94.41
2023-01-19T06:45:56.347Z,94.39
2023-01-19T06:48:23.818Z,94.11
2023-01-19T06:50:50.451Z,93.97
2023-01-19T06:53:17.584Z,94.43
2023-01-19T06:55:44.208Z,94.44
2023-01-19T06:58:11.458Z,93.99
2023-01-19T07:00:38.147Z,93.34
2023-01-19T07:03:08.190Z,93.13
2023-01-19T07:05:36.124Z,92.86
2023-01-19T07:08:03.270Z,92.65
2023-01-19T07:11:25.160Z,92.38
2023-01-19T07:13:16.215Z,92.48
2023-01-19T07:15:43.573Z,92.26
2023-01-19T07:18:10.216Z,92.46
2023-01-19T07:20:37.912Z,92.53
2023-01-19T07:23:04.462Z,92.33
2023-01-19T07:25:30.953Z,91.72
2023-01-19T07:28:00.636Z,92.30
2023-01-19T07:30:27.692Z,92.21
2023-01-19T07:32:58.939Z,92.14
2023-01-19T07:35:25.714Z,92.30
2023-01-19T07:37:52.457Z,92.41
2023-01-19T07:40:19.031Z,91.91
2023-01-19T07:42:50.259Z,91.90
2023-01-19T07:45:18.095Z,91.85
2023-01-19T07:47:45.197Z,91.51
2023-01-19T07:50:13.723Z,91.12
2023-01-19T07:52:40.367Z,90.60
2023-01-19T07:55:07.565Z,90.60
2023-01-19T07:57:34.848Z,90.45
2023-01-19T08:00:01.977Z,90.47
2023-01-19T08:02:28.500Z,89.93
2023-01-19T08:04:55.140Z,89.69
2023-01-19T08:07:21.800Z,89.63
2023-01-19T08:09:48.290Z,89.42
2023-01-19T08:12:14.908Z,89.12
2023-01-19T08:14:41.733Z,88.81
2023-01-19T08:17:12.913Z,88.47
2023-01-19T08:19:41.528Z,88.82
2023-01-19T08:22:18.065Z,89.10
2023-01-19T08:24:44.620Z,88.44
2023-01-19T08:27:13.400Z,88.77
2023-01-19T08:29:39.945Z,87.92
2023-01-19T08:32:06.778Z,87.32
2023-01-19T08:34:33.509Z,87.24
2023-01-19T08:36:59.989Z,87.43
2023-01-19T08:39:27.377Z,87.56
2023-01-19T08:41:54.221Z,87.41
2023-01-19T08:44:20.758Z,87.94
2023-01-19T08:46:47.757Z,87.47
2023-01-19T08:49:14.672Z,87.61
2023-01-19T08:51:41.298Z,87.33
2023-01-19T08:54:07.794Z,87.50
2023-01-19T08:56:34.438Z,87.29
2023-01-19T08:59:09.164Z,86.93
2023-01-19T09:01:37.215Z,86.25
2023-01-19T09:04:04.242Z,86.10
2023-01-19T09:06:30.838Z,86.60
2023-01-19T09:08:57.695Z,86.24
2023-01-19T09:11:24.211Z,85.87
2023-01-19T09:13:50.922Z,85.34
2023-01-19T09:16:17.640Z,85.29
2023-01-19T09:18:45.777Z,85.22
2023-01-19T09:21:12.344Z,85.09
2023-01-19T09:23:38.968Z,84.79
2023-01-19T09:26:06.231Z,84.90
2023-01-19T09:28:33.083Z,84.45
2023-01-19T09:30:59.729Z,84.68
2023-01-19T09:33:26.324Z,84.38
2023-01-19T09:35:52.897Z,84.18
2023-01-19T09:38:20.323Z,83.84
2023-01-19T09:40:55.364Z,83.28
2023-01-19T09:43:33.996Z,83.51
2023-01-19T09:46:02.615Z,83.15
2023-01-19T09:48:32.428Z,82.61
2023-01-19T09:51:02.756Z,82.12
2023-01-19T09:53:29.135Z,81.10
2023-01-19T09:55:55.658Z,79.27
2023-01-19T09:58:22.678Z,77.24
2023-01-19T10:01:02.689Z,75.45
2023-01-19T10:03:29.661Z,73.23
2023-01-19T10:06:03.499Z,71.33
2023-01-19T10:08:44.164Z,69.07
2023-01-19T10:11:51.308Z,67.32
2023-01-19T10:14:34.184Z,65.56
2023-01-19T10:17:14.699Z,65.27
2023-01-19T10:19:47.362Z,64.23
2023-01-19T10:22:21.641Z,64.06
2023-01-19T10:24:53.674Z,62.89
2023-01-19T10:27:26.736Z,62.78
2023-01-19T10:29:53.662Z,63.29
2023-01-19T10:32:23.654Z,64.61
2023-01-19T10:34:51.011Z,63.45
2023-01-19T10:37:33.403Z,63.27
2023-01-19T10:40:09.125Z,61.55
2023-01-19T10:42:36.914Z,61.59
2023-01-19T10:45:04.835Z,62.77
2023-01-19T10:47:35.195Z,62.00
2023-01-19T10:50:34.421Z,62.13
2023-01-19T10:53:06.277Z,63.26
2023-01-19T10:55:38.251Z,63.44
2023-01-19T10:58:06.933Z,62.85
2023-01-19T11:00:43.409Z,63.70
2023-01-19T11:03:30.658Z,62.88
2023-01-19T11:06:15.613Z,61.96
2023-01-19T11:08:44.343Z,62.27
2023-01-19T11:11:12.618Z,61.60
2023-01-19T11:13:40.619Z,62.34
2023-01-19T11:16:23.485Z,61.26
2023-01-19T11:18:53.515Z,60.72
2023-01-19T11:21:25.978Z,60.68
2023-01-19T11:23:59.005Z,60.92
2023-01-19T11:26:44.865Z,62.28
2023-01-19T11:29:18.223Z,61.95
2023-01-19T11:31:44.884Z,62.19
2023-01-19T11:34:37.415Z,60.95
2023-01-19T11:37:06.859Z,60.26
2023-01-19T11:39:47.591Z,60.05
2023-01-19T11:42:15.988Z,60.84
2023-01-19T11:44:57.682Z,60.45
2023-01-19T11:47:27.196Z,60.88
2023-01-19T11:49:53.692Z,60.90
2023-01-19T11:52:55.663Z,59.73
2023-01-19T11:55:21.980Z,60.37
2023-01-19T11:57:53.444Z,60.01
2023-01-19T12:00:29.095Z,60.25
2023-01-19T12:03:03.072Z,60.63
2023-01-19T12:05:33.487Z,61.09
2023-01-19T12:08:07.016Z,60.74
2023-01-19T12:10:39.004Z,60.35
2023-01-19T12:13:05.445Z,59.88
2023-01-19T12:15:37.474Z,59.59
2023-01-19T12:18:06.390Z,60.50
2023-01-19T12:20:40.488Z,60.24
2023-01-19T12:23:45.777Z,57.09
2023-01-19T12:26:24.082Z,54.59
2023-01-19T12:28:52.570Z,52.56
2023-01-19T12:31:23.558Z,53.09
2023-01-19T12:33:51.282Z,53.69
2023-01-19T12:36:27.078Z,52.56
2023-01-19T12:38:56.272Z,51.23
2023-01-19T12:41:30.481Z,49.78
2023-01-19T12:44:12.404Z,51.03
2023-01-19T12:46:42.236Z,51.89
2023-01-19T12:49:33.578Z,50.70
2023-01-19T12:52:34.440Z,51.82
2023-01-19T12:55:02.667Z,53.60
2023-01-19T12:57:37.925Z,54.42
2023-01-19T13:00:24.355Z,57.07
2023-01-19T13:02:52.790Z,56.88
2023-01-19T13:05:45.936Z,60.02
2023-01-19T13:08:14.927Z,61.70
2023-01-19T13:10:59.354Z,64.10
2023-01-19T13:13:27.787Z,64.64
2023-01-19T13:15:56.033Z,65.46
2023-01-19T13:18:31.816Z,66.11
2023-01-19T13:21:01.487Z,66.12
2023-01-19T13:23:51.896Z,66.79
2023-01-19T13:26:30.968Z,67.27
2023-01-19T13:29:25.139Z,68.98
2023-01-19T13:31:54.769Z,70.06
2023-01-19T13:34:24.635Z,71.28
2023-01-19T13:36:54.411Z,72.07
2023-01-19T13:39:28.538Z,73.12
2023-01-19T13:41:59.175Z,73.56
2023-01-19T13:44:29.498Z,74.56
2023-01-19T13:46:57.545Z,75.52
2023-01-19T13:49:37.050Z,76.92
2023-01-19T13:52:27.757Z,78.33
2023-01-19T13:55:03.818Z,78.84
2023-01-19T13:57:32.124Z,78.06
2023-01-19T14:00:04.047Z,78.57
2023-01-19T14:02:30.783Z,79.60
2023-01-19T14:04:57.560Z,79.31
2023-01-19T14:07:26.602Z,79.67
2023-01-19T14:10:06.715Z,79.71
2023-01-19T14:12:33.547Z,79.81
2023-01-19T14:15:00.804Z,79.50
2023-01-19T14:17:30.344Z,79.70
2023-01-19T14:19:58.568Z,78.83
2023-01-19T14:22:42.990Z,78.95
2023-01-19T14:25:34.077Z,79.80
2023-01-19T14:28:25.500Z,80.10
2023-01-19T14:31:01.592Z,79.71
2023-01-19T14:33:43.616Z,80.29
2023-01-19T14:36:39.289Z,80.49
2023-01-19T14:39:14.137Z,80.48
2023-01-19T14:41:47.920Z,80.33
2023-01-19T14:44:21.382Z,81.49
2023-01-19T14:46:49.099Z,81.95
2023-01-19T14:49:34.167Z,82.32
2023-01-19T14:52:08.467Z,83.51
2023-01-19T14:54:40.027Z,83.11
2023-01-19T14:57:12.494Z,83.55
2023-01-19T14:59:39.169Z,83.57
2023-01-19T15:02:06.373Z,83.38
2023-01-19T15:04:33.198Z,83.67
2023-01-19T15:06:59.768Z,83.42
2023-01-19T15:09:26.828Z,83.73
2023-01-19T15:11:53.625Z,83.60
2023-01-19T15:14:21.467Z,83.59
2023-01-19T15:16:48.475Z,82.94
2023-01-19T15:19:16.948Z,83.13
2023-01-19T15:21:46.841Z,82.66
2023-01-19T15:24:15.838Z,82.36
2023-01-19T15:26:43.599Z,82.47
2023-01-19T15:29:18.101Z,82.33
2023-01-19T15:31:44.841Z,82.51
2023-01-19T15:34:13.405Z,82.26
2023-01-19T15:36:40.452Z,82.53
2023-01-19T15:39:06.932Z,82.32
2023-01-19T15:41:33.640Z,82.56
2023-01-19T15:44:00.150Z,82.64
2023-01-19T15:46:27.328Z,82.24
2023-01-19T15:48:54.283Z,82.45
2023-01-19T15:51:22.842Z,82.91
2023-01-19T15:53:50.579Z,83.53
2023-01-19T15:56:31.185Z,83.16
2023-01-19T15:58:58.773Z,83.42
2023-01-19T16:01:32.016Z,82.88
2023-01-19T16:04:01.213Z,83.71
2023-01-19T16:06:28.666Z,83.61
2023-01-19T16:08:59.747Z,83.78
2023-01-19T16:11:33.517Z,83.42
2023-01-19T16:14:00.745Z,83.80
2023-01-19T16:16:28.226Z,84.28
2023-01-19T16:18:55.996Z,83.96
2023-01-19T16:21:23.825Z,84.46
2023-01-19T16:23:50.439Z,84.00
2023-01-19T16:26:34.840Z,84.24
2023-01-19T16:29:07.784Z,84.42
2023-01-19T16:31:34.627Z,84.77
2023-01-19T16:34:01.110Z,84.80
2023-01-19T16:36:29.856Z,84.68
2023-01-19T16:39:01.405Z,84.86
2023-01-19T16:41:28.224Z,85.05
2023-01-19T16:43:56.888Z,85.24
2023-01-19T16:46:26.484Z,85.41
2023-01-19T16:48:53.474Z,85.32
2023-01-19T16:51:20.366Z,85.09
2023-01-19T16:53:49.518Z,84.93
2023-01-19T16:56:16.156Z,84.86
2023-01-19T16:58:43.063Z,84.67
2023-01-19T17:01:17.240Z,84.97
2023-01-19T17:03:45.516Z,84.17
2023-01-19T17:06:14.760Z,84.60
2023-01-19T17:08:41.599Z,84.57
2023-01-19T17:11:10.845Z,84.74
2023-01-19T17:13:38.180Z,84.61
2023-01-19T17:16:06.364Z,84.38
2023-01-19T17:18:34.660Z,84.24
2023-01-19T17:21:07.395Z,84.66
2023-01-19T17:23:36.309Z,84.18
2023-01-19T17:26:04.318Z,84.20
2023-01-19T17:28:31.013Z,84.38
2023-01-19T17:31:05.003Z,84.85
2023-01-19T17:33:31.492Z,84.82
2023-01-19T17:36:06.912Z,84.55
2023-01-19T17:38:33.545Z,84.85
2023-01-19T17:41:00.026Z,84.47
2023-01-19T17:43:26.882Z,84.74
2023-01-19T17:45:53.426Z,84.79
2023-01-19T17:48:19.943Z,84.83
2023-01-19T17:50:46.603Z,85.48
2023-01-19T17:53:13.033Z,85.44
2023-01-19T17:55:39.476Z,85.74
2023-01-19T17:58:06.050Z,85.22
2023-01-19T18:00:32.539Z,85.10
2023-01-19T18:02:59.015Z,85.11
2023-01-19T18:05:25.509Z,85.02
2023-01-19T18:07:51.936Z,85.33
2023-01-19T18:10:18.385Z,84.83
2023-01-19T18:12:45.221Z,84.51
2023-01-19T18:15:12.355Z,84.13
2023-01-19T18:17:39.546Z,84.78
2023-01-19T18:20:06.334Z,85.02
2023-01-19T18:22:33.426Z,84.79
2023-01-19T18:25:01.536Z,84.78
2023-01-19T18:27:29.167Z,84.97
2023-01-19T18:29:55.985Z,84.54
2023-01-19T18:32:22.419Z,84.02
2023-01-19T18:34:51.020Z,84.31
2023-01-19T18:37:17.516Z,84.35
2023-01-19T18:39:44.163Z,84.20
2023-01-19T18:42:10.605Z,84.74
2023-01-19T18:44:37.166Z,84.44
2023-01-19T18:47:03.629Z,84.15
2023-01-19T18:49:30.039Z,84.10
2023-01-19T18:51:56.482Z,84.36
2023-01-19T18:54:23.132Z,84.54
2023-01-19T18:56:50.659Z,84.78
2023-01-19T18:59:17.171Z,84.70
2023-01-19T19:01:43.775Z,85.08
2023-01-19T19:04:10.356Z,85.19
2023-01-19T19:06:36.971Z,84.60
2023-01-19T19:09:03.566Z,84.57
2023-01-19T19:11:30.174Z,84.97
2023-01-19T19:13:59.802Z,85.13
2023-01-19T19:16:26.451Z,84.34
2023-01-19T19:18:53.088Z,85.12
2023-01-19T19:21:20.879Z,84.99
2023-01-19T19:23:55.473Z,85.20
2023-01-19T19:26:23.115Z,85.51
2023-01-19T19:28:49.930Z,85.29
2023-01-19T19:31:20.503Z,84.82
2023-01-19T19:33:48.860Z,85.14
2023-01-19T19:36:15.602Z,84.66
2023-01-19T19:38:43.027Z,85.50
2023-01-19T19:41:12.370Z,85.26
2023-01-19T19:43:39.270Z,85.65
2023-01-19T19:46:08.292Z,85.74
2023-01-19T19:48:38.860Z,85.51
2023-01-19T19:51:19.033Z,86.18
2023-01-19T19:53:46.520Z,85.92
2023-01-19T19:56:13.486Z,85.11
2023-01-19T19:58:41.979Z,86.20
2023-01-19T20:01:24.680Z,86.29
2023-01-19T20:03:53.383Z,85.92
2023-01-19T20:06:22.600Z,86.29
2023-01-19T20:08:50.622Z,86.44
2023-01-19T20:11:21.075Z,86.34
2023-01-19T20:13:47.792Z,86.37
2023-01-19T20:16:16.437Z,85.92
2023-01-19T20:18:45.159Z,85.57
2023-01-19T20:21:20.498Z,86.21
2023-01-19T20:23:48.052Z,85.95
2023-01-19T20:26:17.647Z,86.47
2023-01-19T20:28:44.252Z,86.73
2023-01-19T20:31:13.710Z,86.50
2023-01-19T20:33:40.537Z,87.87
2023-01-19T20:36:08.013Z,87.59
2023-01-19T20:38:34.686Z,87.77
2023-01-19T20:41:01.177Z,87.82
2023-01-19T20:43:28.763Z,87.82
2023-01-19T20:45:55.227Z,88.13
2023-01-19T20:48:21.907Z,88.29
2023-01-19T20:50:48.371Z,88.11
2023-01-19T20:53:14.961Z,88.08
2023-01-19T20:55:41.398Z,88.70
2023-01-19T20:58:07.859Z,88.42
2023-01-19T21:00:34.688Z,87.97
2023-01-19T21:03:01.247Z,88.23
2023-01-19T21:05:28.144Z,88.22
2023-01-19T21:07:54.598Z,88.23
2023-01-19T21:10:22.126Z,88.71
2023-01-19T21:12:48.625Z,88.17
2023-01-19T21:15:15.310Z,88.48
2023-01-19T21:17:43.710Z,88.07
2023-01-19T21:20:11.792Z,88.44
2023-01-19T21:22:38.269Z,88.76
2023-01-19T21:25:05.137Z,88.56
2023-01-19T21:27:31.595Z,88.57
2023-01-19T21:29:58.678Z,88.49
2023-01-19T21:32:25.214Z,88.01
2023-01-19T21:34:51.658Z,88.57
2023-01-19T21:37:18.263Z,88.35
2023-01-19T21:39:44.896Z,88.12
2023-01-19T21:42:11.400Z,87.98
2023-01-19T21:44:37.961Z,88.05
2023-01-19T21:47:09.773Z,87.84
2023-01-19T21:49:36.248Z,87.83
2023-01-19T21:52:02.746Z,88.18
2023-01-19T21:54:29.166Z,88.33
2023-01-19T21:56:55.610Z,88.57
2023-01-19T21:59:22.278Z,89.33
2023-01-19T22:01:48.962Z,88.88
2023-01-19T22:04:15.475Z,88.82
2023-01-19T22:06:41.924Z,89.12
2023-01-19T22:09:08.618Z,88.11
2023-01-19T22:11:35.234Z,88.66
2023-01-19T22:14:01.966Z,88.73
2023-01-19T22:16:29.438Z,88.73
2023-01-19T22:18:59.543Z,88.87
2023-01-19T22:21:31.913Z,88.66
2023-01-19T22:24:00.061Z,89.77
2023-01-19T22:26:28.235Z,89.34
2023-01-19T22:28:59.877Z,89.66
2023-01-19T22:31:28.462Z,89.69
2023-01-19T22:33:55.665Z,88.98
2023-01-19T22:36:27.703Z,89.26
2023-01-19T22:38:58.255Z,90.03
2023-01-19T22:41:40.651Z,89.04
2023-01-19T22:44:10.532Z,90.05
2023-01-19T22:46:37.642Z,90.29
2023-01-19T22:49:05.563Z,90.37
2023-01-19T22:51:32.753Z,90.45
2023-01-19T22:53:59.569Z,91.31
2023-01-19T22:56:28.727Z,90.94
2023-01-19T22:58:55.265Z,91.18
2023-01-19T23:01:25.588Z,91.16
2023-01-19T23:03:53.236Z,91.40
2023-01-19T23:06:24.950Z,91.70
2023-01-19T23:08:52.191Z,92.02
2023-01-19T23:11:22.485Z,91.98
2023-01-19T23:13:49.534Z,92.46
2023-01-19T23:16:16.518Z,92.35
2023-01-19T23:18:43.746Z,92.45
2023-01-19T23:21:15.784Z,92.52
2023-01-19T23:23:43.191Z,92.05
2023-01-19T23:26:12.659Z,92.61
2023-01-19T23:28:40.110Z,92.11
2023-01-19T23:31:13.059Z,92.58
2023-01-19T23:33:41.460Z,92.96
2023-01-19T23:36:08.482Z,93.11
2023-01-19T23:38:34.942Z,92.81
2023-01-19T23:41:01.550Z,93.43
2023-01-19T23:43:28.027Z,94.43
2023-01-19T23:45:54.506Z,94.55
2023-01-19T23:48:21.040Z,94.42
2023-01-19T23:50:47.540Z,94.91
2023-01-19T23:53:14.070Z,94.43
2023-01-19T23:55:40.520Z,95.00
2023-01-19T23:58:06.966Z,95.42
